Terminal Aerodrome Forecast
Issued by NWS

Home | Current Version | Previous Version | Graphics & Text | Print | Product List | Glossary On
Versions: 1 2 3 4 5 6 7 8 9 10 11 12 13 14 15 16 17 18
000
FTUS42 KMHX 242340
TAFOAJ
TAF
KOAJ 242340Z 2500/2524 09010G20KT 2SM +SHRA SCT007 OVC015
      TEMPO 2500/2504 2SM SHRA BKN007
     FM250600 08011KT 3SM SHRA SCT007 OVC015
     FM251500 21007KT 6SM -SHRA BKN015
     FM251800 28007KT P6SM VCSH BKN035
      AMD LTD TO CLD VIS AND WIND=

USA.gov is the U.S. government's official web portal to all federal, state and local government web resources and services.